createdAt,value
2022-08-22T00:00:23.532Z,88.36
2022-08-22T00:02:54.354Z,77.75
2022-08-22T00:03:00.574Z,78.51
2022-08-22T00:06:10.800Z,88.41
2022-08-22T00:09:01.208Z,88.06
2022-08-22T00:11:47.811Z,88.51
2022-08-22T00:14:27.945Z,87.94
2022-08-22T00:17:18.841Z,88.24
2022-08-22T00:20:00.307Z,88.79
2022-08-22T00:22:44.780Z,88.44
2022-08-22T00:25:46.426Z,89.43
2022-08-22T00:28:26.909Z,88.93
2022-08-22T00:31:09.535Z,88.38
2022-08-22T00:33:52.688Z,88.23
2022-08-22T00:36:32.371Z,88.26
2022-08-22T00:39:16.151Z,87.81
2022-08-22T00:42:31.453Z,87.71
2022-08-22T00:45:39.774Z,88.52
2022-08-22T00:48:44.149Z,88.07
2022-08-22T00:52:06.407Z,88.40
2022-08-22T00:55:06.614Z,88.61
2022-08-22T00:58:11.012Z,89.10
2022-08-22T01:00:53.682Z,89.63
2022-08-22T01:03:54.254Z,89.93
2022-08-22T01:06:41.947Z,89.68
2022-08-22T01:09:32.706Z,90.52
2022-08-22T01:12:36.887Z,89.73
2022-08-22T01:15:16.855Z,90.82
2022-08-22T01:18:08.783Z,90.82
2022-08-22T01:21:35.712Z,89.82
2022-08-22T01:25:16.061Z,90.54
2022-08-22T01:28:33.228Z,90.29
2022-08-22T01:32:24.827Z,90.82
2022-08-22T01:35:36.692Z,90.24
2022-08-22T01:38:59.826Z,90.95
2022-08-22T01:42:15.498Z,91.07
2022-08-22T01:45:24.973Z,89.42
2022-08-22T01:48:08.550Z,89.94
2022-08-22T01:50:49.070Z,89.96
2022-08-22T01:53:30.138Z,90.86
2022-08-22T01:56:13.144Z,90.96
2022-08-22T01:58:57.426Z,91.56
2022-08-22T02:01:53.858Z,91.47
2022-08-22T02:04:41.019Z,91.60
2022-08-22T02:07:31.892Z,91.60
2022-08-22T02:10:16.601Z,91.79
2022-08-22T02:13:03.523Z,91.98
2022-08-22T02:15:52.451Z,91.07
2022-08-22T02:18:33.126Z,90.80
2022-08-22T02:21:18.194Z,91.22
2022-08-22T02:23:58.960Z,91.10
2022-08-22T02:26:47.043Z,90.91
2022-08-22T02:29:32.244Z,91.24
2022-08-22T02:32:18.974Z,91.01
2022-08-22T02:35:03.715Z,91.12
2022-08-22T02:37:51.991Z,91.88
2022-08-22T02:40:37.292Z,91.50
2022-08-22T02:43:20.895Z,92.33
2022-08-22T02:46:05.761Z,91.33
2022-08-22T02:48:49.938Z,91.93
2022-08-22T02:51:36.225Z,92.92
2022-08-22T02:54:21.035Z,91.82
2022-08-22T02:57:05.069Z,92.56
2022-08-22T03:00:31.369Z,91.98
2022-08-22T03:03:17.761Z,92.18
2022-08-22T03:06:02.167Z,92.09
2022-08-22T03:08:44.126Z,92.60
2022-08-22T03:11:30.343Z,92.83
2022-08-22T03:14:22.607Z,92.38
2022-08-22T03:17:05.665Z,92.95
2022-08-22T03:19:57.009Z,93.01
2022-08-22T03:22:43.966Z,92.61
2022-08-22T03:25:28.108Z,92.85
2022-08-22T03:28:08.383Z,92.52
2022-08-22T03:30:48.974Z,92.50
2022-08-22T03:33:27.149Z,92.42
2022-08-22T03:36:08.477Z,91.93
2022-08-22T03:38:56.426Z,91.84
2022-08-22T03:41:51.689Z,92.18
2022-08-22T03:45:18.587Z,91.70
2022-08-22T03:48:35.760Z,92.53
2022-08-22T03:51:32.946Z,91.73
2022-08-22T03:54:39.057Z,90.67
2022-08-22T03:58:05.747Z,91.99
2022-08-22T04:01:16.971Z,91.80
2022-08-22T04:04:48.434Z,92.16
2022-08-22T04:07:48.310Z,92.02
2022-08-22T04:11:14.479Z,91.23
2022-08-22T04:14:08.718Z,91.19
2022-08-22T04:17:30.605Z,92.75
2022-08-22T04:21:00.419Z,93.06
2022-08-22T04:24:32.744Z,93.29
2022-08-22T04:27:15.331Z,93.45
2022-08-22T04:29:56.388Z,93.60
2022-08-22T04:32:36.593Z,93.43
2022-08-22T04:35:17.793Z,93.32
2022-08-22T04:37:58.780Z,93.71
2022-08-22T04:40:39.010Z,94.14
2022-08-22T04:43:18.483Z,93.15
2022-08-22T04:45:59.136Z,93.10
2022-08-22T04:48:37.727Z,93.24
2022-08-22T04:51:20.222Z,92.29
2022-08-22T04:54:19.601Z,91.97
2022-08-22T04:57:24.319Z,92.98
2022-08-22T05:00:01.925Z,94.20
2022-08-22T05:02:40.483Z,94.27
2022-08-22T05:05:22.172Z,93.38
2022-08-22T05:08:01.154Z,93.33
2022-08-22T05:10:40.378Z,93.14
2022-08-22T05:13:21.931Z,93.28
2022-08-22T05:16:04.496Z,92.28
2022-08-22T05:18:46.860Z,92.85
2022-08-22T05:21:27.131Z,93.34
2022-08-22T05:24:07.329Z,92.10
2022-08-22T05:26:48.466Z,92.22
2022-08-22T05:29:27.303Z,90.59
2022-08-22T05:32:06.507Z,88.01
2022-08-22T05:34:43.547Z,85.75
2022-08-22T05:37:22.657Z,82.41
2022-08-22T05:40:01.243Z,79.58
2022-08-22T05:42:38.376Z,77.90
2022-08-22T05:45:15.102Z,76.80
2022-08-22T05:47:53.526Z,75.69
2022-08-22T05:50:37.992Z,74.11
2022-08-22T05:53:17.012Z,72.01
2022-08-22T05:56:00.312Z,69.64
2022-08-22T05:58:53.551Z,68.70
2022-08-22T06:01:34.376Z,68.69
2022-08-22T06:04:15.930Z,66.58
2022-08-22T06:06:58.247Z,66.15
2022-08-22T06:09:36.602Z,66.12
2022-08-22T06:12:21.727Z,64.70
2022-08-22T06:15:11.585Z,64.23
2022-08-22T06:17:51.009Z,63.71
2022-08-22T06:20:38.050Z,62.55
2022-08-22T06:23:26.209Z,62.74
2022-08-22T06:26:04.007Z,60.95
2022-08-22T06:28:54.755Z,59.50
2022-08-22T06:31:34.810Z,58.61
2022-08-22T06:34:16.043Z,58.35
2022-08-22T06:36:52.922Z,57.89
2022-08-22T06:39:33.088Z,58.57
2022-08-22T06:42:16.477Z,56.15
2022-08-22T06:44:57.492Z,55.97
2022-08-22T06:47:35.572Z,57.03
2022-08-22T06:50:15.191Z,57.21
2022-08-22T06:52:55.638Z,55.28
2022-08-22T06:55:32.508Z,55.67
2022-08-22T06:58:14.801Z,53.88
2022-08-22T07:01:05.658Z,53.27
2022-08-22T07:03:54.117Z,52.48
2022-08-22T07:06:33.930Z,51.51
2022-08-22T07:09:09.717Z,51.53
2022-08-22T07:11:45.028Z,50.58
2022-08-22T07:14:29.626Z,50.95
2022-08-22T07:17:08.706Z,50.48
2022-08-22T07:19:51.113Z,50.62
2022-08-22T07:22:32.726Z,49.95
2022-08-22T07:25:12.360Z,48.07
2022-08-22T07:28:06.933Z,47.76
2022-08-22T07:30:55.385Z,47.21
2022-08-22T07:33:44.053Z,46.76
2022-08-22T07:36:31.818Z,46.07
2022-08-22T07:39:21.706Z,45.39
2022-08-22T07:42:08.102Z,46.04
2022-08-22T07:45:02.162Z,45.66
2022-08-22T07:47:53.265Z,47.13
2022-08-22T07:50:33.439Z,48.00
2022-08-22T07:53:18.366Z,47.88
2022-08-22T07:55:53.678Z,47.51
2022-08-22T07:58:30.156Z,46.99
2022-08-22T08:01:03.696Z,48.04
2022-08-22T08:03:37.627Z,47.65
2022-08-22T08:06:11.337Z,48.21
2022-08-22T08:08:46.495Z,46.84
2022-08-22T08:11:22.132Z,46.77
2022-08-22T08:14:00.951Z,46.24
2022-08-22T08:16:43.477Z,46.74
2022-08-22T08:19:18.976Z,47.28
2022-08-22T08:21:55.927Z,48.80
2022-08-22T08:24:41.546Z,47.12
2022-08-22T08:27:37.674Z,47.38
2022-08-22T08:30:18.371Z,47.36
2022-08-22T08:33:24.124Z,45.23
2022-08-22T08:36:02.408Z,46.61
2022-08-22T08:38:44.407Z,44.39
2022-08-22T08:42:19.334Z,44.61
2022-08-22T08:45:20.774Z,45.84
2022-08-22T08:48:29.380Z,45.00
2022-08-22T08:51:42.475Z,44.17
2022-08-22T08:54:36.215Z,45.06
2022-08-22T08:57:20.818Z,43.66
2022-08-22T09:00:12.301Z,44.08
2022-08-22T09:03:09.222Z,42.89
2022-08-22T09:06:07.097Z,43.98
2022-08-22T09:09:10.828Z,42.24
2022-08-22T09:13:00.547Z,44.01
2022-08-22T09:15:58.513Z,42.60
2022-08-22T09:19:28.199Z,42.19
2022-08-22T09:22:50.559Z,42.11
2022-08-22T09:25:46.252Z,39.93
2022-08-22T09:28:29.261Z,38.93
2022-08-22T09:31:44.961Z,39.98
2022-08-22T09:34:30.395Z,39.29
2022-08-22T09:37:20.661Z,39.90
2022-08-22T09:40:03.770Z,40.42
2022-08-22T09:42:48.578Z,40.54
2022-08-22T09:45:45.474Z,40.89
2022-08-22T09:48:39.873Z,41.40
2022-08-22T09:51:34.363Z,40.63
2022-08-22T09:54:31.645Z,41.41
2022-08-22T09:57:22.851Z,40.06
2022-08-22T10:00:22.326Z,38.92
2022-08-22T10:03:07.757Z,39.43
2022-08-22T10:05:47.462Z,39.22
2022-08-22T10:08:45.893Z,38.27
2022-08-22T10:11:27.216Z,39.27
2022-08-22T10:14:05.835Z,38.47
2022-08-22T10:17:04.301Z,39.83
2022-08-22T10:19:45.788Z,39.15
2022-08-22T10:22:40.922Z,37.38
2022-08-22T10:25:34.761Z,36.75
2022-08-22T10:28:18.070Z,37.96
2022-08-22T10:31:19.737Z,36.64
2022-08-22T10:34:04.355Z,37.96
2022-08-22T10:36:49.189Z,38.14
2022-08-22T10:39:30.094Z,37.20
2022-08-22T10:42:25.479Z,37.69
2022-08-22T10:45:35.495Z,38.33
2022-08-22T10:48:44.855Z,36.38
2022-08-22T10:51:36.762Z,36.60
2022-08-22T10:54:29.888Z,35.25
2022-08-22T10:57:28.669Z,35.03
2022-08-22T11:00:14.214Z,35.90
2022-08-22T11:02:55.738Z,35.82
2022-08-22T11:05:38.303Z,35.56
2022-08-22T11:08:49.989Z,34.58
2022-08-22T11:11:42.451Z,36.22
2022-08-22T11:14:45.270Z,36.79
2022-08-22T11:17:40.647Z,37.94
2022-08-22T11:20:23.283Z,37.55
2022-08-22T11:23:20.862Z,38.28
2022-08-22T11:26:04.951Z,37.75
2022-08-22T11:29:26.301Z,39.06
2022-08-22T11:32:08.390Z,38.96
2022-08-22T11:34:57.455Z,40.65
2022-08-22T11:37:49.025Z,39.18
2022-08-22T11:40:37.681Z,38.71
2022-08-22T11:43:41.351Z,37.59
2022-08-22T11:46:31.042Z,36.43
2022-08-22T11:49:40.926Z,36.27
2022-08-22T11:52:30.329Z,35.52
2022-08-22T11:55:28.476Z,35.91
2022-08-22T11:58:28.992Z,36.38
2022-08-22T12:01:17.325Z,35.47
2022-08-22T12:04:14.483Z,35.94
2022-08-22T12:07:03.323Z,35.44
2022-08-22T12:09:50.569Z,36.17
2022-08-22T12:12:37.585Z,35.67
2022-08-22T12:15:18.560Z,34.83
2022-08-22T12:18:34.477Z,35.67
2022-08-22T12:21:36.759Z,36.84
2022-08-22T12:24:29.195Z,35.49
2022-08-22T12:27:27.721Z,35.65
2022-08-22T12:30:13.700Z,35.43
2022-08-22T12:33:35.577Z,35.88
2022-08-22T12:36:47.617Z,36.39
2022-08-22T12:39:42.581Z,36.17
2022-08-22T12:43:06.621Z,35.65
2022-08-22T12:46:13.325Z,36.21
2022-08-22T12:49:30.338Z,36.02
2022-08-22T12:52:23.117Z,36.38
2022-08-22T12:55:37.920Z,36.40
2022-08-22T12:58:34.005Z,36.67
2022-08-22T13:01:10.227Z,35.46
2022-08-22T13:03:48.416Z,36.78
2022-08-22T13:06:51.166Z,34.38
2022-08-22T13:09:31.841Z,32.73
2022-08-22T13:12:20.001Z,33.54
2022-08-22T13:14:59.849Z,33.55
2022-08-22T13:17:35.922Z,34.26
2022-08-22T13:20:14.447Z,34.35
2022-08-22T13:22:54.562Z,34.19
2022-08-22T13:25:31.899Z,34.07
2022-08-22T13:28:12.847Z,34.80
2022-08-22T13:30:46.529Z,34.84
2022-08-22T13:33:27.676Z,34.75
2022-08-22T13:36:05.519Z,34.81
2022-08-22T13:38:46.698Z,33.49
2022-08-22T13:41:26.248Z,34.31
2022-08-22T13:44:19.167Z,34.07
2022-08-22T13:47:13.878Z,34.39
2022-08-22T13:49:50.483Z,34.46
2022-08-22T13:52:32.969Z,34.32
2022-08-22T13:55:17.577Z,33.48
2022-08-22T13:58:01.211Z,33.08
2022-08-22T14:01:08.051Z,33.54
2022-08-22T14:03:49.098Z,33.03
2022-08-22T14:06:41.560Z,34.93
2022-08-22T14:09:31.230Z,35.31
2022-08-22T14:12:12.770Z,33.81
2022-08-22T14:14:56.684Z,33.32
2022-08-22T14:17:38.443Z,33.68
2022-08-22T14:20:32.397Z,33.05
2022-08-22T14:23:12.242Z,34.21
2022-08-22T14:25:46.949Z,34.10
2022-08-22T14:28:27.875Z,32.53
2022-08-22T14:31:08.466Z,33.24
2022-08-22T14:33:50.281Z,34.94
2022-08-22T14:36:30.106Z,33.55
2022-08-22T14:39:10.082Z,32.95
2022-08-22T14:41:56.331Z,32.63
2022-08-22T14:44:37.763Z,33.42
2022-08-22T14:47:52.792Z,33.26
2022-08-22T14:50:42.142Z,33.77
2022-08-22T14:53:27.671Z,33.86
2022-08-22T14:56:09.783Z,33.07
2022-08-22T14:58:52.089Z,33.05
2022-08-22T15:01:29.715Z,32.73
2022-08-22T15:04:09.603Z,33.50
2022-08-22T15:06:52.366Z,33.12
2022-08-22T15:09:34.073Z,33.45
2022-08-22T15:12:21.851Z,33.42
2022-08-22T15:14:58.296Z,32.94
2022-08-22T15:17:44.031Z,32.92
2022-08-22T15:20:31.317Z,33.25
2022-08-22T15:23:19.383Z,32.91
2022-08-22T15:26:00.847Z,33.31
2022-08-22T15:28:52.649Z,33.14
2022-08-22T15:31:27.093Z,33.28
2022-08-22T15:34:11.390Z,33.62
2022-08-22T15:37:11.000Z,32.79
2022-08-22T15:40:08.219Z,33.35
2022-08-22T15:42:48.775Z,32.98
2022-08-22T15:45:33.684Z,34.06
2022-08-22T15:48:11.657Z,33.52
2022-08-22T15:51:00.343Z,33.74
2022-08-22T15:54:02.355Z,33.09
2022-08-22T15:56:38.027Z,33.18
2022-08-22T15:59:47.726Z,33.04
2022-08-22T16:02:35.485Z,33.04
2022-08-22T16:05:27.117Z,33.55
2022-08-22T16:08:07.625Z,33.95
2022-08-22T16:10:47.431Z,34.02
2022-08-22T16:13:45.281Z,34.41
2022-08-22T16:17:01.837Z,34.38
2022-08-22T16:19:38.347Z,34.94
2022-08-22T16:22:16.342Z,34.88
2022-08-22T16:25:10.895Z,34.72
2022-08-22T16:27:59.942Z,35.18
2022-08-22T16:30:41.049Z,35.01
2022-08-22T16:33:31.788Z,35.34
2022-08-22T16:36:46.316Z,34.70
2022-08-22T16:39:38.616Z,35.17
2022-08-22T16:42:30.260Z,35.26
2022-08-22T16:45:21.195Z,35.41
2022-08-22T16:47:58.841Z,35.70
2022-08-22T16:50:38.218Z,35.07
2022-08-22T16:53:54.564Z,35.03
2022-08-22T16:56:34.300Z,35.09
2022-08-22T16:59:39.630Z,34.43
2022-08-22T17:02:43.539Z,34.46
2022-08-22T17:05:41.837Z,34.73
2022-08-22T17:08:33.460Z,35.60
2022-08-22T17:11:28.350Z,35.54
2022-08-22T17:14:21.810Z,35.31
2022-08-22T17:17:15.236Z,35.88
2022-08-22T17:20:08.736Z,36.00
2022-08-22T17:22:53.914Z,36.16
2022-08-22T17:25:37.045Z,36.29
2022-08-22T17:28:22.841Z,36.25
2022-08-22T17:31:04.131Z,37.26
2022-08-22T17:34:07.866Z,37.27
2022-08-22T17:36:59.682Z,38.19
2022-08-22T17:39:54.641Z,38.50
2022-08-22T17:43:00.655Z,38.46
2022-08-22T17:45:52.357Z,38.63
2022-08-22T17:48:34.019Z,39.68
2022-08-22T17:51:20.219Z,40.83
2022-08-22T17:54:02.556Z,41.36
2022-08-22T17:56:46.670Z,42.46
2022-08-22T17:59:30.505Z,42.27
2022-08-22T18:02:16.554Z,43.26
2022-08-22T18:05:04.220Z,43.90
2022-08-22T18:07:53.600Z,45.22
2022-08-22T18:10:43.416Z,45.97
2022-08-22T18:13:35.779Z,47.39
2022-08-22T18:16:20.588Z,47.83
2022-08-22T18:19:06.609Z,48.22
2022-08-22T18:21:50.299Z,48.42
2022-08-22T18:24:33.330Z,48.88
2022-08-22T18:27:34.762Z,50.03
2022-08-22T18:30:20.978Z,49.98
2022-08-22T18:33:00.755Z,49.76
2022-08-22T18:35:49.977Z,50.02
2022-08-22T18:38:34.174Z,50.56
2022-08-22T18:41:14.645Z,50.93
2022-08-22T18:43:51.423Z,51.02
2022-08-22T18:46:43.753Z,52.15
2022-08-22T18:49:45.647Z,53.37
2022-08-22T18:52:36.110Z,53.80
2022-08-22T18:55:46.454Z,55.01
2022-08-22T18:58:44.229Z,55.93
2022-08-22T19:01:42.290Z,55.70
2022-08-22T19:05:08.707Z,55.69
2022-08-22T19:08:03.442Z,57.16
2022-08-22T19:10:52.981Z,57.32
2022-08-22T19:14:05.521Z,57.37
2022-08-22T19:17:01.761Z,57.73
2022-08-22T19:20:08.271Z,58.04
2022-08-22T19:22:42.120Z,58.23
2022-08-22T19:25:25.930Z,58.79
2022-08-22T19:28:26.782Z,59.78
2022-08-22T19:31:22.632Z,59.73
2022-08-22T19:34:18.465Z,59.74
2022-08-22T19:37:32.720Z,59.40
2022-08-22T19:40:10.388Z,59.48
2022-08-22T19:42:49.735Z,60.02
2022-08-22T19:45:28.784Z,60.17
2022-08-22T19:48:13.653Z,60.10
2022-08-22T19:51:07.710Z,60.88
2022-08-22T19:53:51.428Z,61.24
2022-08-22T19:56:51.923Z,61.33
2022-08-22T19:59:36.894Z,61.35
2022-08-22T20:02:31.953Z,61.17
2022-08-22T20:05:22.186Z,61.33
2022-08-22T20:08:22.197Z,60.96
2022-08-22T20:11:17.062Z,60.61
2022-08-22T20:13:50.325Z,61.53
2022-08-22T20:17:05.781Z,61.90
2022-08-22T20:22:49.537Z,62.32
2022-08-22T20:25:43.160Z,63.75
2022-08-22T20:28:40.141Z,63.49
2022-08-22T20:31:22.854Z,64.46
2022-08-22T20:34:05.606Z,64.47
2022-08-22T20:36:39.174Z,64.25
2022-08-22T20:39:22.726Z,64.46
2022-08-22T20:42:03.950Z,64.97
2022-08-22T20:44:42.204Z,64.86
2022-08-22T20:47:23.942Z,65.14
2022-08-22T20:50:03.672Z,65.40
2022-08-22T20:52:41.545Z,65.79
2022-08-22T20:55:20.403Z,65.72
2022-08-22T20:57:57.190Z,66.36
2022-08-22T21:00:35.767Z,66.34
2022-08-22T21:03:14.259Z,66.51
2022-08-22T21:05:48.666Z,66.96
2022-08-22T21:08:25.241Z,67.04
2022-08-22T21:11:21.361Z,67.86
2022-08-22T21:13:54.867Z,68.87
2022-08-22T21:16:31.900Z,69.44
2022-08-22T21:19:05.177Z,69.72
2022-08-22T21:21:39.663Z,69.10
2022-08-22T21:24:12.785Z,67.99
2022-08-22T21:26:51.173Z,68.78
2022-08-22T21:29:32.853Z,69.61
2022-08-22T21:32:28.497Z,69.43
2022-08-22T21:35:03.852Z,70.13
2022-08-22T21:37:45.490Z,70.58
2022-08-22T21:40:22.656Z,70.89
2022-08-22T21:43:08.530Z,71.46
2022-08-22T21:45:45.185Z,71.23
2022-08-22T21:48:40.559Z,71.78
2022-08-22T21:51:43.433Z,72.59
2022-08-22T21:54:39.836Z,72.92
2022-08-22T21:57:24.359Z,73.13
2022-08-22T22:00:00.064Z,73.04
2022-08-22T22:02:38.172Z,73.58
2022-08-22T22:05:19.577Z,73.88
2022-08-22T22:07:52.888Z,74.32
2022-08-22T22:10:27.888Z,73.77
2022-08-22T22:13:02.289Z,73.89
2022-08-22T22:15:42.543Z,74.97
2022-08-22T22:18:21.647Z,75.19
2022-08-22T22:20:56.686Z,75.53
2022-08-22T22:23:30.590Z,75.33
2022-08-22T22:26:07.085Z,75.72
2022-08-22T22:28:43.843Z,75.97
2022-08-22T22:31:19.721Z,76.32
2022-08-22T22:33:53.516Z,76.13
2022-08-22T22:36:28.559Z,76.89
2022-08-22T22:39:02.405Z,76.73
2022-08-22T22:41:38.766Z,77.04
2022-08-22T22:44:12.454Z,77.43
2022-08-22T22:46:46.042Z,77.38
2022-08-22T22:49:20.522Z,77.97
2022-08-22T22:51:54.375Z,78.08
2022-08-22T22:54:37.607Z,78.35
2022-08-22T22:57:14.563Z,78.41
2022-08-22T22:59:51.313Z,78.77
2022-08-22T23:02:25.811Z,77.93
2022-08-22T23:04:59.270Z,77.40
2022-08-22T23:07:33.830Z,76.65
2022-08-22T23:10:10.222Z,76.59
2022-08-22T23:12:45.816Z,77.36
2022-08-22T23:15:19.790Z,77.93
2022-08-22T23:17:53.331Z,78.31
2022-08-22T23:20:27.053Z,78.94
2022-08-22T23:23:00.722Z,78.58
2022-08-22T23:25:34.520Z,78.81
2022-08-22T23:28:09.680Z,78.90
2022-08-22T23:30:43.298Z,79.45
2022-08-22T23:33:16.723Z,79.68
2022-08-22T23:35:51.456Z,79.80
2022-08-22T23:38:30.851Z,79.28
2022-08-22T23:41:09.772Z,79.50
2022-08-22T23:43:48.657Z,79.85
2022-08-22T23:46:24.313Z,79.64
2022-08-22T23:48:57.626Z,80.29
2022-08-22T23:51:31.363Z,79.93
2022-08-22T23:54:05.857Z,78.93
2022-08-22T23:56:41.862Z,78.45
2022-08-22T23:59:19.997Z,78.46
